Graham, Texas
Current Conditions -  °F | °C
As of 12:30 PM on Sunday 21 Dec 2014 (Local Time) from KRPH Reporting Station
Overcast Overcast  
Wind Chill: 51°   Ceiling: 1500
Heat Index: 51°   Visibility: 10mi
Dew Point: 46°   Wind: 10mph
Humidity: 85%   Direction: 150°SSE
Pressure: 29.89"   Gusts: NA
Location:  33.11°N, 98.59°W
Report Text: KRPH 211830Z AUTO 15009KT 10SM OVC015 11/08 A2989 RMK AO2 T01050080
Loading
Personal Weather Stations






























Interactive Weather Map New forecast layout! Learn more

10-Day Weather Forecast

Advertisements
Track Severe Weather on mobile